Oklahoma — C6VR8 — position and weather

sailwx.info

Track history (hours):
 
Tides and Currents Weather Stations Pressure Air Temp Water Temp Dewpoint Dewpoint Depression Visibility Wind Speed Wind Dir Waves Ship Positions

Oklahoma

Last reported at 2017-Dec-11 17:00 UTC. Time now 2017-Dec-14 08:18 UTC.
Position N 37°43' W 122°21'.

Length 238 m; draft 8.6 m.

Type: Tanker. MMSI: 308664000.

Date/timePositionNaut miles runAvg speedWind from/ knotsBaromVisibWave heightAir tempDewpointWater temp
2017-Dec-11 17:00N 37°43' W 122°21'0 0.2
2017-Dec-11 16:30N 37°43' W 122°21'0 0.3
2017-Dec-11 16:00N 37°43' W 122°21'0 0.1
2017-Dec-11 15:30N 37°43' W 122°21'0 0.1
2017-Dec-11 15:00N 37°43' W 122°20'0 0.0
2017-Dec-11 14:30N 37°43' W 122°20'0 0.1
2017-Dec-11 13:57N 37°43' W 122°21'0 0.1
2017-Dec-11 13:30N 37°43' W 122°20'0 0.0
2017-Dec-11 13:00N 37°43' W 122°20'0 0.0
2017-Dec-11 12:30N 37°43' W 122°20'0 0.0
2017-Dec-11 12:00N 37°43' W 122°20'0 0.0
2017-Dec-11 11:30N 37°43' W 122°20'0 0.0
2017-Dec-11 11:00N 37°43' W 122°20'0 0.0
2017-Dec-11 10:30N 37°43' W 122°20'0 0.0
2017-Dec-11 10:00N 37°43' W 122°20'0 0.3
2017-Dec-11 09:30N 37°43' W 122°20'0 0.4
2017-Dec-11 09:00N 37°43' W 122°21'0 0.0
2017-Dec-11 08:30N 37°43' W 122°21'0 0.0
2017-Dec-11 08:00N 37°43' W 122°21'0 0.0
2017-Dec-11 07:30N 37°43' W 122°21'0 0.0
2017-Dec-11 07:00N 37°43' W 122°21'0 0.0
2017-Dec-11 06:30N 37°43' W 122°21'0 0.1
2017-Dec-11 06:00N 37°43' W 122°21'0 0.0
2017-Dec-11 05:30N 37°43' W 122°21'0 0.0
2017-Dec-11 05:00N 37°43' W 122°21'0 0.3
2017-Dec-11 04:31N 37°43' W 122°20'3 5.7
2017-Dec-11 04:01N 37°46' W 122°22'612.3
2017-Dec-11 03:30N 37°52' W 122°25'612.5
2017-Dec-11 03:00N 37°58' W 122°27'612.2
2017-Dec-11 02:30N 38°02' W 122°21'510.8
2017-Dec-11 02:00N 38°04' W 122°15'4 7.1
2017-Dec-11 01:30N 38°03' W 122°10'2 4.5
2017-Dec-11 01:00N 38°02' W 122°08'0 0.0
2017-Dec-10 18:24N 38°02' W 122°08'0 0.0
2017-Dec-10 18:00N 38°02' W 122°08'0 0.0
2017-Dec-10 17:30N 38°02' W 122°08'0 0.0
2017-Dec-10 17:00N 38°02' W 122°08'0 0.0
2017-Dec-10 16:30N 38°02' W 122°08'0 0.0
2017-Dec-10 16:00N 38°02' W 122°08'0 0.0
2017-Dec-10 15:30N 38°02' W 122°08'0 0.0
2017-Dec-10 15:00N 38°02' W 122°08'0 0.0
2017-Dec-10 14:30N 38°02' W 122°08'0 0.0
2017-Dec-10 13:42N 38°02' W 122°08'0 0.0
2017-Dec-10 13:30N 38°02' W 122°08'0 0.0
2017-Dec-10 12:54N 38°02' W 122°08'0 0.0
2017-Dec-10 12:30N 38°02' W 122°08'0 0.0
2017-Dec-10 11:48N 38°02' W 122°08'0 0.0
2017-Dec-10 07:42N 38°02' W 122°08'0 0.0
2017-Dec-10 07:18N 38°02' W 122°08'0 0.0
2017-Dec-10 07:00N 38°02' W 122°08'0 0.0
2017-Dec-10 06:30N 38°02' W 122°08'0 0.0
2017-Dec-10 06:00N 38°02' W 122°08'0 0.0
2017-Dec-10 05:30N 38°02' W 122°08'0 0.0
2017-Dec-10 05:00N 38°02' W 122°08'0 0.0
2017-Dec-10 04:24N 38°02' W 122°08'0 0.0
2017-Dec-10 04:00N 38°02' W 122°08'0 0.0
2017-Dec-09 15:18N 38°02' W 122°08'0 0.0
2017-Dec-09 14:48N 38°02' W 122°08'0 0.0
2017-Dec-09 14:24N 38°02' W 122°08'0 0.0
2017-Dec-08 19:48N 38°02' W 122°08'0 0.0
2017-Dec-08 19:30N 38°02' W 122°08'0 0.0
2017-Dec-08 13:36N 38°02' W 122°08'0 0.1
2017-Dec-08 13:30N 38°02' W 122°08'0 0.0
2017-Dec-08 13:00N 38°02' W 122°08'0 0.1
2017-Dec-08 12:30N 38°02' W 122°08'1 2.5
2017-Dec-08 12:00N 38°02' W 122°09'4 7.7
2017-Dec-08 11:30N 38°04' W 122°14'510.1
2017-Dec-08 11:00N 38°03' W 122°20'611.6
2017-Dec-08 10:31N 37°59' W 122°26'611.7
2017-Dec-08 10:00N 37°54' W 122°26'510.2
2017-Dec-08 09:30N 37°49' W 122°23'4 7.1
2017-Dec-08 09:01N 37°46' W 122°21'0 0.2
2017-Dec-08 08:30N 37°46' W 122°21'0 0.0
2017-Dec-08 08:00N 37°46' W 122°21'0 0.0
2017-Dec-08 07:30N 37°46' W 122°21'0 0.1
2017-Dec-08 07:00N 37°46' W 122°21'0 0.3
2017-Dec-08 06:30N 37°46' W 122°21'0 0.4
2017-Dec-08 06:00N 37°46' W 122°21'0 0.2
2017-Dec-08 05:30N 37°46' W 122°21'0 0.0
2017-Dec-08 05:00N 37°46' W 122°21'0 0.0
2017-Dec-08 04:30N 37°46' W 122°21'0 0.0
2017-Dec-08 04:00N 37°46' W 122°21'0 0.0
2017-Dec-08 03:30N 37°46' W 122°21'0 0.0
2017-Dec-08 03:00N 37°46' W 122°21'0 0.0
2017-Dec-08 02:30N 37°46' W 122°21'0 0.0
2017-Dec-08 02:00N 37°46' W 122°21'0 0.0
2017-Dec-08 01:30N 37°46' W 122°21'0 0.0
2017-Dec-08 01:00N 37°46' W 122°21'0 0.0
2017-Dec-08 00:30N 37°46' W 122°21'0 0.0
2017-Dec-08 00:00N 37°46' W 122°21'0 0.1
2017-Dec-07 23:30N 37°46' W 122°21'0 0.3
2017-Dec-07 23:00N 37°46' W 122°21'0 0.2
2017-Dec-07 22:30N 37°46' W 122°21'0 0.1
2017-Dec-07 22:00N 37°46' W 122°21'0 0.0
2017-Dec-07 21:30N 37°46' W 122°21'0 0.0
2017-Dec-07 21:00N 37°46' W 122°21'0 0.0
2017-Dec-07 20:30N 37°46' W 122°21'0 0.0
2017-Dec-07 20:00N 37°46' W 122°21'0 0.0
2017-Dec-07 19:30N 37°46' W 122°21'0 0.1
2017-Dec-07 19:00N 37°46' W 122°21'0 0.0
2017-Dec-07 18:30N 37°46' W 122°21'0 0.2
2017-Dec-07 18:00N 37°46' W 122°21'0 0.4
2017-Dec-07 17:30N 37°46' W 122°21'0 0.1
2017-Dec-07 17:00N 37°46' W 122°21'0 0.0
2017-Dec-07 16:30N 37°46' W 122°21'0 0.0
2017-Dec-07 16:00N 37°46' W 122°21'0 0.0
2017-Dec-07 15:30N 37°46' W 122°21'0 0.0
2017-Dec-07 15:00N 37°46' W 122°21'0 0.0
2017-Dec-07 14:30N 37°46' W 122°21'0 0.0
2017-Dec-07 14:00N 37°46' W 122°21'0 0.0
2017-Dec-07 13:30N 37°46' W 122°21'0 0.1
2017-Dec-07 13:00N 37°46' W 122°21'0 0.1
2017-Dec-07 12:00N 37°46' W 122°21'0 0.3
2017-Dec-07 11:30N 37°46' W 122°21'0 0.1
2017-Dec-07 11:00N 37°46' W 122°21'0 0.1
2017-Dec-07 10:30N 37°46' W 122°21'0 0.1
2017-Dec-07 10:00N 37°46' W 122°21'0 0.0
2017-Dec-07 09:30N 37°46' W 122°21'0 0.0
2017-Dec-07 09:00N 37°46' W 122°21'0 0.1
2017-Dec-07 08:30N 37°46' W 122°21'0 0.0
2017-Dec-07 08:00N 37°46' W 122°21'0 0.1
2017-Dec-07 07:30N 37°46' W 122°21'0 0.1
2017-Dec-07 07:00N 37°46' W 122°21'0 0.1
2017-Dec-07 06:30N 37°46' W 122°21'0 0.0
2017-Dec-07 06:00N 37°46' W 122°21'0 0.4
2017-Dec-07 05:30N 37°46' W 122°21'0 0.2
2017-Dec-07 05:00N 37°46' W 122°21'0 0.1
2017-Dec-07 04:30N 37°46' W 122°21'0 0.0
2017-Dec-07 04:00N 37°46' W 122°21'0 0.0
2017-Dec-07 03:30N 37°46' W 122°21'0 0.0
2017-Dec-07 03:00N 37°46' W 122°21'0 0.0
2017-Dec-07 02:30N 37°46' W 122°21'0 0.0
2017-Dec-07 02:00N 37°46' W 122°21'0 0.0
2017-Dec-07 01:30N 37°46' W 122°21'0 0.0
2017-Dec-07 01:00N 37°46' W 122°21'0 0.0
2017-Dec-07 00:30N 37°46' W 122°21'0 0.0
2017-Dec-07 00:00N 37°46' W 122°21'0 0.0
2017-Dec-06 23:30N 37°46' W 122°21'0 0.1
2017-Dec-06 23:00N 37°46' W 122°21'0 0.0
2017-Dec-06 22:30N 37°46' W 122°21'0 0.4
2017-Dec-06 22:00N 37°46' W 122°21'0 0.2
2017-Dec-06 21:30N 37°46' W 122°21'0 0.1
2017-Dec-06 21:00N 37°46' W 122°21'  
2017-Dec-04 10:30N 37°46' W 122°21'0 0.3
2017-Dec-04 10:00N 37°46' W 122°21'0 0.2
2017-Dec-04 09:30N 37°46' W 122°21'0 0.1
2017-Dec-04 09:00N 37°46' W 122°21'0 0.1
2017-Dec-04 08:30N 37°46' W 122°21'0 0.0
2017-Dec-04 08:00N 37°46' W 122°21'0 0.1
2017-Dec-04 07:30N 37°46' W 122°21'0 0.0
2017-Dec-04 07:00N 37°46' W 122°21'0 0.0
2017-Dec-04 06:30N 37°46' W 122°21'0 0.0
2017-Dec-04 06:00N 37°46' W 122°21'0 0.0
2017-Dec-04 05:30N 37°46' W 122°21'0 0.1
2017-Dec-04 05:00N 37°46' W 122°21'0 0.1
2017-Dec-04 04:30N 37°46' W 122°21'0 0.0
2017-Dec-04 04:00N 37°46' W 122°21'0 0.0
2017-Dec-04 03:30N 37°46' W 122°21'0 0.3
2017-Dec-04 03:00N 37°46' W 122°21'0 0.4
2017-Dec-04 02:30N 37°46' W 122°21'0 0.1
2017-Dec-04 02:00N 37°46' W 122°21'0 0.0
2017-Dec-04 01:30N 37°46' W 122°21'0 0.0
2017-Dec-04 01:00N 37°46' W 122°21'0 0.0
2017-Dec-04 00:30N 37°46' W 122°21'0 0.0
2017-Dec-04 00:00N 37°46' W 122°21'0 0.0
2017-Dec-03 23:30N 37°46' W 122°21'0 0.0
2017-Dec-03 23:00N 37°46' W 122°21'0 0.0
2017-Dec-03 22:30N 37°46' W 122°21'0 0.0
2017-Dec-03 22:00N 37°46' W 122°21'0 0.0
2017-Dec-03 21:30N 37°46' W 122°21'0 0.1
2017-Dec-03 21:00N 37°46' W 122°21'0 0.1
2017-Dec-03 20:30N 37°46' W 122°21'0 0.1
2017-Dec-03 20:00N 37°46' W 122°21'0 0.4
2017-Dec-03 19:30N 37°46' W 122°21'0 0.2
2017-Dec-03 19:00N 37°46' W 122°21'0 0.1
2017-Dec-03 18:30N 37°46' W 122°21'0 0.0
2017-Dec-03 18:00N 37°46' W 122°21'0 0.0
2017-Dec-03 17:30N 37°46' W 122°21'0 0.0
2017-Dec-03 17:00N 37°46' W 122°21'0 0.0
2017-Dec-03 16:30N 37°46' W 122°21'0 0.0
2017-Dec-03 16:00N 37°46' W 122°21'0 0.0
2017-Dec-03 15:30N 37°46' W 122°21'0 0.1
2017-Dec-03 15:00N 37°46' W 122°21'0 0.0
2017-Dec-03 14:30N 37°46' W 122°21'0 0.1
2017-Dec-03 14:00N 37°46' W 122°21'0 0.3
2017-Dec-03 13:30N 37°46' W 122°21'0 0.3
2017-Dec-03 13:00N 37°46' W 122°21'0 0.0
2017-Dec-03 12:30N 37°46' W 122°21'0 0.1
2017-Dec-03 12:00N 37°46' W 122°21'0 0.0
2017-Dec-03 11:30N 37°46' W 122°21'0 0.1
2017-Dec-03 11:00N 37°46' W 122°21'0 0.0
2017-Dec-03 10:30N 37°46' W 122°21'0 0.1
2017-Dec-03 10:00N 37°46' W 122°21'0 0.1
2017-Dec-03 09:30N 37°46' W 122°21'0 0.6
2017-Dec-03 09:00N 37°46' W 122°21'0 0.2
2017-Dec-03 08:30N 37°46' W 122°21'0 0.1
2017-Dec-03 08:00N 37°46' W 122°21'0 0.2
2017-Dec-03 07:30N 37°46' W 122°21'0 0.0
2017-Dec-03 07:00N 37°46' W 122°21'0 0.0
2017-Dec-03 06:30N 37°46' W 122°21'0 0.0
2017-Dec-03 06:00N 37°46' W 122°21'0 0.0
2017-Dec-03 05:30N 37°46' W 122°21'0 0.0
2017-Dec-03 05:00N 37°46' W 122°21'0 0.0
2017-Dec-03 04:30N 37°46' W 122°21'0 0.0
2017-Dec-03 04:00N 37°46' W 122°21'0 0.0
2017-Dec-03 03:30N 37°46' W 122°21'0 0.1
2017-Dec-03 03:00N 37°46' W 122°21'0 0.1
2017-Dec-03 02:30N 37°46' W 122°21'0 0.5
2017-Dec-03 02:00N 37°46' W 122°21'0 0.1
2017-Dec-03 01:30N 37°46' W 122°21'0 0.0
2017-Dec-03 01:00N 37°46' W 122°21'0 0.0
2017-Dec-03 00:30N 37°46' W 122°21'0 0.0
2017-Dec-03 00:00N 37°46' W 122°21'0 0.0
2017-Dec-02 23:30N 37°46' W 122°21'0 0.0
2017-Dec-02 23:00N 37°46' W 122°21'0 0.0
2017-Dec-02 22:30N 37°46' W 122°21'0 0.0
2017-Dec-02 22:00N 37°46' W 122°21'0 0.0
2017-Dec-02 21:30N 37°46' W 122°21'0 0.0
2017-Dec-02 21:00N 37°46' W 122°21'0 0.0
2017-Dec-02 20:30N 37°46' W 122°21'0 0.1
2017-Dec-02 20:00N 37°46' W 122°21'0 0.0
2017-Dec-02 19:30N 37°46' W 122°21'0 0.3
2017-Dec-02 19:00N 37°46' W 122°21'0 0.3
2017-Dec-02 18:30N 37°46' W 122°21'0 0.1
2017-Dec-02 18:00N 37°46' W 122°21'0 0.0
2017-Dec-02 17:30N 37°46' W 122°21'0 0.1
2017-Dec-02 17:00N 37°46' W 122°21'0 0.0
2017-Dec-02 16:30N 37°46' W 122°21'0 0.0
2017-Dec-02 16:00N 37°46' W 122°21'0 0.0
2017-Dec-02 15:30N 37°46' W 122°21'0 0.1
2017-Dec-02 15:00N 37°46' W 122°21'0 0.0
2017-Dec-02 14:30N 37°46' W 122°21'0 0.0
2017-Dec-02 14:00N 37°46' W 122°21'0 0.0
2017-Dec-02 13:30N 37°46' W 122°21'0 0.2
2017-Dec-02 13:00N 37°46' W 122°21'0 0.4
2017-Dec-02 12:30N 37°46' W 122°21'0 0.1
2017-Dec-02 12:00N 37°46' W 122°21'0 0.0
2017-Dec-02 11:30N 37°46' W 122°21'0 0.0
2017-Dec-02 11:00N 37°46' W 122°21'0 0.0
2017-Dec-02 10:30N 37°46' W 122°21'0 0.0
2017-Dec-02 10:00N 37°46' W 122°21'0 0.0
2017-Dec-02 09:30N 37°46' W 122°21'0 0.0
2017-Dec-02 09:00N 37°46' W 122°21'0 0.1
2017-Dec-02 08:30N 37°46' W 122°21'0 0.1
2017-Dec-02 08:00N 37°46' W 122°21'0 0.4
2017-Dec-02 07:30N 37°46' W 122°21'0 0.2
2017-Dec-02 07:00N 37°46' W 122°21'0 0.0
2017-Dec-02 06:30N 37°46' W 122°21'0 0.0
2017-Dec-02 06:00N 37°46' W 122°21'0 0.0
2017-Dec-02 05:30N 37°46' W 122°21'0 0.0
2017-Dec-02 05:00N 37°46' W 122°21'0 0.0
2017-Dec-02 04:30N 37°46' W 122°21'0 0.0
2017-Dec-02 04:00N 37°46' W 122°21'0 0.0
2017-Dec-02 03:30N 37°46' W 122°21'0 0.1
2017-Dec-02 03:00N 37°46' W 122°21'0 0.0
2017-Dec-02 02:30N 37°46' W 122°21'0 0.0
2017-Dec-02 02:00N 37°46' W 122°21'0 0.2
2017-Dec-02 01:30N 37°46' W 122°21'0 0.4
2017-Dec-02 01:00N 37°46' W 122°21'0 0.2
2017-Dec-02 00:30N 37°46' W 122°21'0 0.0
2017-Dec-02 00:00N 37°46' W 122°21'0 0.0
2017-Dec-01 23:30N 37°46' W 122°21'0 0.0
2017-Dec-01 23:00N 37°46' W 122°21'0 0.0
2017-Dec-01 22:27N 37°46' W 122°21'0 0.0
2017-Dec-01 22:00N 37°46' W 122°21'0 0.0
2017-Dec-01 21:30N 37°46' W 122°21'0 0.0
2017-Dec-01 21:00N 37°46' W 122°21'0 0.0
2017-Dec-01 20:30N 37°46' W 122°21'0 0.2
2017-Dec-01 20:00N 37°46' W 122°21'3 6.0
2017-Dec-01 19:30N 37°48' W 122°24'4 8.6
2017-Dec-01 19:00N 37°49' W 122°29'611.8
2017-Dec-01 18:30N 37°46' W 122°36'510.9
2017-Dec-01 18:01N 37°44' W 122°42'510.4
2017-Dec-01 17:30N 37°39' W 122°40'612.2
2017-Dec-01 17:00N 37°33' W 122°40'  
Track history (hours):
 
Tides and Currents Weather Stations Pressure Air Temp Water Temp Dewpoint Dewpoint Depression Visibility Wind Speed Wind Dir Waves Ship Positions

Oklahoma

Last reported at 2017-Dec-11 17:00 UTC. Time now 2017-Dec-14 08:18 UTC.
Position N 37°43' W 122°21'.

Length 238 m; draft 8.6 m.

Type: Tanker. MMSI: 308664000.

Date/timePositionNaut miles runAvg speedWind from/ knotsBaromVisibWave heightAir tempDewpointWater temp
2017-Dec-11 17:00N 37°43' W 122°21'0 0.2
2017-Dec-11 16:30N 37°43' W 122°21'0 0.3
2017-Dec-11 16:00N 37°43' W 122°21'0 0.1
2017-Dec-11 15:30N 37°43' W 122°21'0 0.1
2017-Dec-11 15:00N 37°43' W 122°20'0 0.0
2017-Dec-11 14:30N 37°43' W 122°20'0 0.1
2017-Dec-11 13:57N 37°43' W 122°21'0 0.1
2017-Dec-11 13:30N 37°43' W 122°20'0 0.0
2017-Dec-11 13:00N 37°43' W 122°20'0 0.0
2017-Dec-11 12:30N 37°43' W 122°20'0 0.0
2017-Dec-11 12:00N 37°43' W 122°20'0 0.0
2017-Dec-11 11:30N 37°43' W 122°20'0 0.0
2017-Dec-11 11:00N 37°43' W 122°20'0 0.0
2017-Dec-11 10:30N 37°43' W 122°20'0 0.0
2017-Dec-11 10:00N 37°43' W 122°20'0 0.3
2017-Dec-11 09:30N 37°43' W 122°20'0 0.4
2017-Dec-11 09:00N 37°43' W 122°21'0 0.0
2017-Dec-11 08:30N 37°43' W 122°21'0 0.0
2017-Dec-11 08:00N 37°43' W 122°21'0 0.0
2017-Dec-11 07:30N 37°43' W 122°21'0 0.0
2017-Dec-11 07:00N 37°43' W 122°21'0 0.0
2017-Dec-11 06:30N 37°43' W 122°21'0 0.1
2017-Dec-11 06:00N 37°43' W 122°21'0 0.0
2017-Dec-11 05:30N 37°43' W 122°21'0 0.0
2017-Dec-11 05:00N 37°43' W 122°21'0 0.3
2017-Dec-11 04:31N 37°43' W 122°20'3 5.7
2017-Dec-11 04:01N 37°46' W 122°22'612.3
2017-Dec-11 03:30N 37°52' W 122°25'612.5
2017-Dec-11 03:00N 37°58' W 122°27'612.2
2017-Dec-11 02:30N 38°02' W 122°21'510.8
2017-Dec-11 02:00N 38°04' W 122°15'4 7.1
2017-Dec-11 01:30N 38°03' W 122°10'2 4.5
2017-Dec-11 01:00N 38°02' W 122°08'0 0.0
2017-Dec-10 18:24N 38°02' W 122°08'0 0.0
2017-Dec-10 18:00N 38°02' W 122°08'0 0.0
2017-Dec-10 17:30N 38°02' W 122°08'0 0.0
2017-Dec-10 17:00N 38°02' W 122°08'0 0.0
2017-Dec-10 16:30N 38°02' W 122°08'0 0.0
2017-Dec-10 16:00N 38°02' W 122°08'0 0.0
2017-Dec-10 15:30N 38°02' W 122°08'0 0.0
2017-Dec-10 15:00N 38°02' W 122°08'0 0.0
2017-Dec-10 14:30N 38°02' W 122°08'0 0.0
2017-Dec-10 13:42N 38°02' W 122°08'0 0.0
2017-Dec-10 13:30N 38°02' W 122°08'0 0.0
2017-Dec-10 12:54N 38°02' W 122°08'0 0.0
2017-Dec-10 12:30N 38°02' W 122°08'0 0.0
2017-Dec-10 11:48N 38°02' W 122°08'0 0.0
2017-Dec-10 07:42N 38°02' W 122°08'0 0.0
2017-Dec-10 07:18N 38°02' W 122°08'0 0.0
2017-Dec-10 07:00N 38°02' W 122°08'0 0.0
2017-Dec-10 06:30N 38°02' W 122°08'0 0.0
2017-Dec-10 06:00N 38°02' W 122°08'0 0.0
2017-Dec-10 05:30N 38°02' W 122°08'0 0.0
2017-Dec-10 05:00N 38°02' W 122°08'0 0.0
2017-Dec-10 04:24N 38°02' W 122°08'0 0.0
2017-Dec-10 04:00N 38°02' W 122°08'0 0.0
2017-Dec-09 15:18N 38°02' W 122°08'0 0.0
2017-Dec-09 14:48N 38°02' W 122°08'0 0.0
2017-Dec-09 14:24N 38°02' W 122°08'0 0.0
2017-Dec-08 19:48N 38°02' W 122°08'0 0.0
2017-Dec-08 19:30N 38°02' W 122°08'0 0.0
2017-Dec-08 13:36N 38°02' W 122°08'0 0.1
2017-Dec-08 13:30N 38°02' W 122°08'0 0.0
2017-Dec-08 13:00N 38°02' W 122°08'0 0.1
2017-Dec-08 12:30N 38°02' W 122°08'1 2.5
2017-Dec-08 12:00N 38°02' W 122°09'4 7.7
2017-Dec-08 11:30N 38°04' W 122°14'510.1
2017-Dec-08 11:00N 38°03' W 122°20'611.6
2017-Dec-08 10:31N 37°59' W 122°26'611.7
2017-Dec-08 10:00N 37°54' W 122°26'510.2
2017-Dec-08 09:30N 37°49' W 122°23'4 7.1
2017-Dec-08 09:01N 37°46' W 122°21'0 0.2
2017-Dec-08 08:30N 37°46' W 122°21'0 0.0
2017-Dec-08 08:00N 37°46' W 122°21'0 0.0
2017-Dec-08 07:30N 37°46' W 122°21'0 0.1
2017-Dec-08 07:00N 37°46' W 122°21'0 0.3
2017-Dec-08 06:30N 37°46' W 122°21'0 0.4
2017-Dec-08 06:00N 37°46' W 122°21'0 0.2
2017-Dec-08 05:30N 37°46' W 122°21'0 0.0
2017-Dec-08 05:00N 37°46' W 122°21'0 0.0
2017-Dec-08 04:30N 37°46' W 122°21'0 0.0
2017-Dec-08 04:00N 37°46' W 122°21'0 0.0
2017-Dec-08 03:30N 37°46' W 122°21'0 0.0
2017-Dec-08 03:00N 37°46' W 122°21'0 0.0
2017-Dec-08 02:30N 37°46' W 122°21'0 0.0
2017-Dec-08 02:00N 37°46' W 122°21'0 0.0
2017-Dec-08 01:30N 37°46' W 122°21'0 0.0
2017-Dec-08 01:00N 37°46' W 122°21'0 0.0
2017-Dec-08 00:30N 37°46' W 122°21'0 0.0
2017-Dec-08 00:00N 37°46' W 122°21'0 0.1
2017-Dec-07 23:30N 37°46' W 122°21'0 0.3
2017-Dec-07 23:00N 37°46' W 122°21'0 0.2
2017-Dec-07 22:30N 37°46' W 122°21'0 0.1
2017-Dec-07 22:00N 37°46' W 122°21'0 0.0
2017-Dec-07 21:30N 37°46' W 122°21'0 0.0
2017-Dec-07 21:00N 37°46' W 122°21'0 0.0
2017-Dec-07 20:30N 37°46' W 122°21'0 0.0
2017-Dec-07 20:00N 37°46' W 122°21'0 0.0
2017-Dec-07 19:30N 37°46' W 122°21'0 0.1
2017-Dec-07 19:00N 37°46' W 122°21'0 0.0
2017-Dec-07 18:30N 37°46' W 122°21'0 0.2
2017-Dec-07 18:00N 37°46' W 122°21'0 0.4
2017-Dec-07 17:30N 37°46' W 122°21'0 0.1
2017-Dec-07 17:00N 37°46' W 122°21'0 0.0
2017-Dec-07 16:30N 37°46' W 122°21'0 0.0
2017-Dec-07 16:00N 37°46' W 122°21'0 0.0
2017-Dec-07 15:30N 37°46' W 122°21'0 0.0
2017-Dec-07 15:00N 37°46' W 122°21'0 0.0
2017-Dec-07 14:30N 37°46' W 122°21'0 0.0
2017-Dec-07 14:00N 37°46' W 122°21'0 0.0
2017-Dec-07 13:30N 37°46' W 122°21'0 0.1
2017-Dec-07 13:00N 37°46' W 122°21'0 0.1
2017-Dec-07 12:00N 37°46' W 122°21'0 0.3
2017-Dec-07 11:30N 37°46' W 122°21'0 0.1
2017-Dec-07 11:00N 37°46' W 122°21'0 0.1
2017-Dec-07 10:30N 37°46' W 122°21'0 0.1
2017-Dec-07 10:00N 37°46' W 122°21'0 0.0
2017-Dec-07 09:30N 37°46' W 122°21'0 0.0
2017-Dec-07 09:00N 37°46' W 122°21'0 0.1
2017-Dec-07 08:30N 37°46' W 122°21'0 0.0
2017-Dec-07 08:00N 37°46' W 122°21'0 0.1
2017-Dec-07 07:30N 37°46' W 122°21'0 0.1
2017-Dec-07 07:00N 37°46' W 122°21'0 0.1
2017-Dec-07 06:30N 37°46' W 122°21'0 0.0
2017-Dec-07 06:00N 37°46' W 122°21'0 0.4
2017-Dec-07 05:30N 37°46' W 122°21'0 0.2
2017-Dec-07 05:00N 37°46' W 122°21'0 0.1
2017-Dec-07 04:30N 37°46' W 122°21'0 0.0
2017-Dec-07 04:00N 37°46' W 122°21'0 0.0
2017-Dec-07 03:30N 37°46' W 122°21'0 0.0
2017-Dec-07 03:00N 37°46' W 122°21'0 0.0
2017-Dec-07 02:30N 37°46' W 122°21'0 0.0
2017-Dec-07 02:00N 37°46' W 122°21'0 0.0
2017-Dec-07 01:30N 37°46' W 122°21'0 0.0
2017-Dec-07 01:00N 37°46' W 122°21'0 0.0
2017-Dec-07 00:30N 37°46' W 122°21'0 0.0
2017-Dec-07 00:00N 37°46' W 122°21'0 0.0
2017-Dec-06 23:30N 37°46' W 122°21'0 0.1
2017-Dec-06 23:00N 37°46' W 122°21'0 0.0
2017-Dec-06 22:30N 37°46' W 122°21'0 0.4
2017-Dec-06 22:00N 37°46' W 122°21'0 0.2
2017-Dec-06 21:30N 37°46' W 122°21'0 0.1
2017-Dec-06 21:00N 37°46' W 122°21'  
2017-Dec-04 10:30N 37°46' W 122°21'0 0.3
2017-Dec-04 10:00N 37°46' W 122°21'0 0.2
2017-Dec-04 09:30N 37°46' W 122°21'0 0.1
2017-Dec-04 09:00N 37°46' W 122°21'0 0.1
2017-Dec-04 08:30N 37°46' W 122°21'0 0.0
2017-Dec-04 08:00N 37°46' W 122°21'0 0.1
2017-Dec-04 07:30N 37°46' W 122°21'0 0.0
2017-Dec-04 07:00N 37°46' W 122°21'0 0.0
2017-Dec-04 06:30N 37°46' W 122°21'0 0.0
2017-Dec-04 06:00N 37°46' W 122°21'0 0.0
2017-Dec-04 05:30N 37°46' W 122°21'0 0.1
2017-Dec-04 05:00N 37°46' W 122°21'0 0.1
2017-Dec-04 04:30N 37°46' W 122°21'0 0.0
2017-Dec-04 04:00N 37°46' W 122°21'0 0.0
2017-Dec-04 03:30N 37°46' W 122°21'0 0.3
2017-Dec-04 03:00N 37°46' W 122°21'0 0.4
2017-Dec-04 02:30N 37°46' W 122°21'0 0.1
2017-Dec-04 02:00N 37°46' W 122°21'0 0.0
2017-Dec-04 01:30N 37°46' W 122°21'0 0.0
2017-Dec-04 01:00N 37°46' W 122°21'0 0.0
2017-Dec-04 00:30N 37°46' W 122°21'0 0.0
2017-Dec-04 00:00N 37°46' W 122°21'0 0.0
2017-Dec-03 23:30N 37°46' W 122°21'0 0.0
2017-Dec-03 23:00N 37°46' W 122°21'0 0.0
2017-Dec-03 22:30N 37°46' W 122°21'0 0.0
2017-Dec-03 22:00N 37°46' W 122°21'0 0.0
2017-Dec-03 21:30N 37°46' W 122°21'0 0.1
2017-Dec-03 21:00N 37°46' W 122°21'0 0.1
2017-Dec-03 20:30N 37°46' W 122°21'0 0.1
2017-Dec-03 20:00N 37°46' W 122°21'0 0.4
2017-Dec-03 19:30N 37°46' W 122°21'0 0.2
2017-Dec-03 19:00N 37°46' W 122°21'0 0.1
2017-Dec-03 18:30N 37°46' W 122°21'0 0.0
2017-Dec-03 18:00N 37°46' W 122°21'0 0.0
2017-Dec-03 17:30N 37°46' W 122°21'0 0.0
2017-Dec-03 17:00N 37°46' W 122°21'0 0.0
2017-Dec-03 16:30N 37°46' W 122°21'0 0.0
2017-Dec-03 16:00N 37°46' W 122°21'0 0.0
2017-Dec-03 15:30N 37°46' W 122°21'0 0.1
2017-Dec-03 15:00N 37°46' W 122°21'0 0.0
2017-Dec-03 14:30N 37°46' W 122°21'0 0.1
2017-Dec-03 14:00N 37°46' W 122°21'0 0.3
2017-Dec-03 13:30N 37°46' W 122°21'0 0.3
2017-Dec-03 13:00N 37°46' W 122°21'0 0.0
2017-Dec-03 12:30N 37°46' W 122°21'0 0.1
2017-Dec-03 12:00N 37°46' W 122°21'0 0.0
2017-Dec-03 11:30N 37°46' W 122°21'0 0.1
2017-Dec-03 11:00N 37°46' W 122°21'0 0.0
2017-Dec-03 10:30N 37°46' W 122°21'0 0.1
2017-Dec-03 10:00N 37°46' W 122°21'0 0.1
2017-Dec-03 09:30N 37°46' W 122°21'0 0.6
2017-Dec-03 09:00N 37°46' W 122°21'0 0.2
2017-Dec-03 08:30N 37°46' W 122°21'0 0.1
2017-Dec-03 08:00N 37°46' W 122°21'0 0.2
2017-Dec-03 07:30N 37°46' W 122°21'0 0.0
2017-Dec-03 07:00N 37°46' W 122°21'0 0.0
2017-Dec-03 06:30N 37°46' W 122°21'0 0.0
2017-Dec-03 06:00N 37°46' W 122°21'0 0.0
2017-Dec-03 05:30N 37°46' W 122°21'0 0.0
2017-Dec-03 05:00N 37°46' W 122°21'0 0.0
2017-Dec-03 04:30N 37°46' W 122°21'0 0.0
2017-Dec-03 04:00N 37°46' W 122°21'0 0.0
2017-Dec-03 03:30N 37°46' W 122°21'0 0.1
2017-Dec-03 03:00N 37°46' W 122°21'0 0.1
2017-Dec-03 02:30N 37°46' W 122°21'0 0.5
2017-Dec-03 02:00N 37°46' W 122°21'0 0.1
2017-Dec-03 01:30N 37°46' W 122°21'0 0.0
2017-Dec-03 01:00N 37°46' W 122°21'0 0.0
2017-Dec-03 00:30N 37°46' W 122°21'0 0.0
2017-Dec-03 00:00N 37°46' W 122°21'0 0.0
2017-Dec-02 23:30N 37°46' W 122°21'0 0.0
2017-Dec-02 23:00N 37°46' W 122°21'0 0.0
2017-Dec-02 22:30N 37°46' W 122°21'0 0.0
2017-Dec-02 22:00N 37°46' W 122°21'0 0.0
2017-Dec-02 21:30N 37°46' W 122°21'0 0.0
2017-Dec-02 21:00N 37°46' W 122°21'0 0.0
2017-Dec-02 20:30N 37°46' W 122°21'0 0.1
2017-Dec-02 20:00N 37°46' W 122°21'0 0.0
2017-Dec-02 19:30N 37°46' W 122°21'0 0.3
2017-Dec-02 19:00N 37°46' W 122°21'0 0.3
2017-Dec-02 18:30N 37°46' W 122°21'0 0.1
2017-Dec-02 18:00N 37°46' W 122°21'0 0.0
2017-Dec-02 17:30N 37°46' W 122°21'0 0.1
2017-Dec-02 17:00N 37°46' W 122°21'0 0.0
2017-Dec-02 16:30N 37°46' W 122°21'0 0.0
2017-Dec-02 16:00N 37°46' W 122°21'0 0.0
2017-Dec-02 15:30N 37°46' W 122°21'0 0.1
2017-Dec-02 15:00N 37°46' W 122°21'0 0.0
2017-Dec-02 14:30N 37°46' W 122°21'0 0.0
2017-Dec-02 14:00N 37°46' W 122°21'0 0.0
2017-Dec-02 13:30N 37°46' W 122°21'0 0.2
2017-Dec-02 13:00N 37°46' W 122°21'0 0.4
2017-Dec-02 12:30N 37°46' W 122°21'0 0.1
2017-Dec-02 12:00N 37°46' W 122°21'0 0.0
2017-Dec-02 11:30N 37°46' W 122°21'0 0.0
2017-Dec-02 11:00N 37°46' W 122°21'0 0.0
2017-Dec-02 10:30N 37°46' W 122°21'0 0.0
2017-Dec-02 10:00N 37°46' W 122°21'0 0.0
2017-Dec-02 09:30N 37°46' W 122°21'0 0.0
2017-Dec-02 09:00N 37°46' W 122°21'0 0.1
2017-Dec-02 08:30N 37°46' W 122°21'0 0.1
2017-Dec-02 08:00N 37°46' W 122°21'0 0.4
2017-Dec-02 07:30N 37°46' W 122°21'0 0.2
2017-Dec-02 07:00N 37°46' W 122°21'0 0.0
2017-Dec-02 06:30N 37°46' W 122°21'0 0.0
2017-Dec-02 06:00N 37°46' W 122°21'0 0.0
2017-Dec-02 05:30N 37°46' W 122°21'0 0.0
2017-Dec-02 05:00N 37°46' W 122°21'0 0.0
2017-Dec-02 04:30N 37°46' W 122°21'0 0.0
2017-Dec-02 04:00N 37°46' W 122°21'0 0.0
2017-Dec-02 03:30N 37°46' W 122°21'0 0.1
2017-Dec-02 03:00N 37°46' W 122°21'0 0.0
2017-Dec-02 02:30N 37°46' W 122°21'0 0.0
2017-Dec-02 02:00N 37°46' W 122°21'0 0.2
2017-Dec-02 01:30N 37°46' W 122°21'0 0.4
2017-Dec-02 01:00N 37°46' W 122°21'0 0.2
2017-Dec-02 00:30N 37°46' W 122°21'0 0.0
2017-Dec-02 00:00N 37°46' W 122°21'0 0.0
2017-Dec-01 23:30N 37°46' W 122°21'0 0.0
2017-Dec-01 23:00N 37°46' W 122°21'0 0.0
2017-Dec-01 22:27N 37°46' W 122°21'0 0.0
2017-Dec-01 22:00N 37°46' W 122°21'0 0.0
2017-Dec-01 21:30N 37°46' W 122°21'0 0.0
2017-Dec-01 21:00N 37°46' W 122°21'0 0.0
2017-Dec-01 20:30N 37°46' W 122°21'0 0.2
2017-Dec-01 20:00N 37°46' W 122°21'3 6.0
2017-Dec-01 19:30N 37°48' W 122°24'4 8.6
2017-Dec-01 19:00N 37°49' W 122°29'611.8
2017-Dec-01 18:30N 37°46' W 122°36'510.9
2017-Dec-01 18:01N 37°44' W 122°42'510.4
2017-Dec-01 17:30N 37°39' W 122°40'612.2
2017-Dec-01 17:00N 37°33' W 122°40'  

Dump ship's entire track history